Prinsburg, MN (56281)

5:24 PM CST on December 08, 2016 (GMT -0600)
Olivia Regional | | Change Station

Elev 1076 ft 44.78 °N, 95.03 °W | Updated 12 minutes ago

Overcast
Overcast
16 °F
Feels Like 3 °F
N
12
Wind Variable Wind from NW
Gusts 18 mph

Today
High -- | Low -- °F
--% Chance of Precip.
Yesterday
High -- | Low -- °F
Precip. -- in
Pressure 30.52 in
Visibility 10.0 miles
Clouds Scattered Clouds 600 ft
Scattered Clouds 1200 ft
Scattered Clouds 8500 ft
Windchill 3 °F
Dew Point 10 °F
Humidity 79%
Rainfall 0.00 in
Snow Depth Not available.
7:46 AM 4:39 PM
Waxing Gibbous, 68% visible
METAR KOVL 082312Z AUTO 31010G16KT 10SM -SN SCT006 SCT012 SCT085 M09/M12 A3052 RMK AO2
Pressure 30.52 in
Visibility 10.0 miles
Clouds Scattered Clouds 600 ft
Scattered Clouds 1200 ft
Scattered Clouds 8500 ft
Windchill 3 °F
Dew Point 10 °F
Humidity 79%
Rainfall 0.00 in
Snow Depth Not available.
7:46 AM 4:39 PM
Waxing Gibbous, 68% visible
METAR KOVL 082312Z AUTO 31010G16KT 10SM -SN SCT006 SCT012 SCT085 M09/M12 A3052 RMK AO2

10-Day Weather Forecast

Almanac

Astronomy

Dec. 08, 2016 Rise Set
Actual Time
Civil Twilight
Nautical Twilight
Astronomical Twilight
Moon
Length of Visible Light
Length of Day
Tomorrow will be .
, % of the Moon is Illuminated

Today's Extremes

State Highs State Lows

Community

WunderPhotos

Upload Photos

1,956,277 photos uploaded!

WunderBlog® & News

Nearby

Air Quality

  Air Quality AQ Index Pollutant
Not available.

Snow Depth

Station Depth Elevation

Earthquake Activity

City Distance Mag. Time & Date
Minimum magnitude displayed is 2.5.

Coastal Water Temperatures

Place Temperature

Stations

Nearby Weather Stations

Station Location Temp. Windchill Dew Point Humidity Wind Precip. Elev Updated Type
                   

Watches & Warnings

There are currently no watches in effect.